Seer Green, United Kingdom
Current Conditions -  °F | °C
As of 8:50 PM on Monday 24 Nov 2014 (Local Time) from EGWU Reporting Station
Light Fog Light Fog  
Wind Chill:   Ceiling: Unl
Heat Index:   Visibility: 2.8mi
Dew Point:   Wind: 1mph
Humidity: 100%   Direction: 350°N
Pressure: 30.33"   Gusts: NA
Location:  51.62°N, 0.61°W
Report Text: EGWU 242050Z 35001KT 4500 MIFG FEW250 00/M00 Q1027 GRN TEMPO 0500 FG RED
Loading
Personal Weather Stations






























Interactive Weather Map New forecast layout! Learn more

10-Day Weather Forecast

Advertisements
Track Severe Weather on mobile